Time;durP1;ratioP1;P1;durP2;ratioP2;P2;SDS_P1;SDS_P2;PMS_P1;PMS_P2;Temp;Humidity;BMP_temperature;BMP_pressure;BME280_temperature;BME280_humidity;BME280_pressure;Samples;Min_cycle;Max_cycle;Signal;HPM_P1;HPM_P2
2023/10/05 00:01:56;;;;;;;0.50;0.40;;;13.40;99.90;;;;;;5015055;28;20452;-82
2023/10/05 00:04:24;;;;;;;0.50;0.40;;;13.40;99.90;;;;;;5030944;28;20448;-82
2023/10/05 00:06:54;;;;;;;0.50;0.40;;;13.40;99.90;;;;;;5022835;28;20450;-83
2023/10/05 00:09:21;;;;;;;0.50;0.40;;;13.40;99.90;;;;;;5014258;28;20448;-80
2023/10/05 00:11:48;;;;;;;0.50;0.40;;;13.40;99.90;;;;;;5014419;28;20484;-81
2023/10/05 00:14:17;;;;;;;0.50;0.40;;;13.40;99.90;;;;;;5022326;28;20449;-77
2023/10/05 00:16:47;;;;;;;0.60;0.60;;;13.40;99.90;;;;;;5014736;28;20476;-81
2023/10/05 00:19:17;;;;;;;0.50;0.40;;;13.30;99.90;;;;;;5013995;28;20807;-79
2023/10/05 00:21:50;;;;;;;0.80;0.80;;;13.30;99.90;;;;;;5018552;28;20553;-81
2023/10/05 00:24:20;;;;;;;1.47;1.37;;;13.30;99.90;;;;;;5017233;28;20866;-79
2023/10/05 00:26:48;;;;;;;0.50;0.50;;;13.30;99.90;;;;;;5020809;28;20733;-81
2023/10/05 00:29:19;;;;;;;6.63;1.27;;;13.30;99.90;;;;;;5013675;28;20453;-80
2023/10/05 00:31:46;;;;;;;0.50;0.40;;;13.30;99.90;;;;;;5013938;28;20478;-80
2023/10/05 00:34:21;;;;;;;0.50;0.40;;;13.20;99.90;;;;;;5013677;28;20448;-80
2023/10/05 00:36:50;;;;;;;5.23;1.17;;;13.20;99.90;;;;;;5013883;28;20442;-81
2023/10/05 00:39:19;;;;;;;0.57;0.57;;;13.20;99.90;;;;;;5013178;28;20928;-80
2023/10/05 00:41:49;;;;;;;0.50;0.40;;;13.20;99.90;;;;;;5013761;28;20453;-81
2023/10/05 00:44:18;;;;;;;0.50;0.40;;;13.20;99.90;;;;;;5013953;28;20435;-79
2023/10/05 00:46:49;;;;;;;1.33;1.33;;;13.20;99.90;;;;;;5013299;28;20476;-81
2023/10/05 00:49:19;;;;;;;0.50;0.40;;;13.20;99.90;;;;;;5021344;28;20440;-81
2023/10/05 00:51:55;;;;;;;0.50;0.40;;;13.20;99.90;;;;;;5017567;28;20452;-81
2023/10/05 00:54:30;;;;;;;0.50;0.40;;;13.20;99.90;;;;;;5022650;28;20574;-81
2023/10/05 00:56:57;;;;;;;1.07;0.50;;;13.20;99.90;;;;;;5014708;28;20856;-81
2023/10/05 00:59:30;;;;;;;0.50;0.40;;;13.20;99.90;;;;;;5013798;28;20450;-80
2023/10/05 01:02:05;;;;;;;1.10;0.50;;;13.20;99.90;;;;;;5014138;28;20463;-82
2023/10/05 01:04:52;;;;;;;0.50;0.50;;;13.20;99.90;;;;;;5022167;28;20520;-82
2023/10/05 01:07:28;;;;;;;0.50;0.40;;;13.20;99.90;;;;;;5014779;28;20450;-79
2023/10/05 01:10:21;;;;;;;0.50;0.40;;;13.20;99.90;;;;;;5015503;28;20813;-80
2023/10/05 01:12:48;;;;;;;0.50;0.40;;;13.20;99.90;;;;;;5014443;28;20824;-82
2023/10/05 01:15:21;;;;;;;0.50;0.40;;;13.20;99.90;;;;;;5015430;28;20477;-81
2023/10/05 01:17:51;;;;;;;0.67;0.67;;;13.20;99.90;;;;;;5015458;28;20447;-80
2023/10/05 01:20:25;;;;;;;3.07;2.60;;;13.20;99.90;;;;;;5014824;28;20453;-81
2023/10/05 01:22:57;;;;;;;2.50;1.43;;;13.20;99.90;;;;;;5014646;28;20471;-81
2023/10/05 01:25:27;;;;;;;0.50;0.40;;;13.20;99.90;;;;;;5013595;28;20461;-81
2023/10/05 01:27:54;;;;;;;0.50;0.40;;;13.20;99.90;;;;;;5015075;28;20448;-81
2023/10/05 01:30:21;;;;;;;0.93;0.93;;;13.20;99.90;;;;;;5014548;28;20452;-80
2023/10/05 01:32:49;;;;;;;0.50;0.40;;;13.20;99.90;;;;;;5014193;28;20452;-81
2023/10/05 01:35:19;;;;;;;0.60;0.60;;;13.20;99.90;;;;;;5015804;28;20505;-82
2023/10/05 01:37:49;;;;;;;0.50;0.40;;;13.20;99.90;;;;;;5018373;28;20449;-80
2023/10/05 01:40:23;;;;;;;0.50;0.40;;;13.10;99.90;;;;;;5018787;28;20508;-81
2023/10/05 01:42:52;;;;;;;0.50;0.40;;;13.10;99.90;;;;;;5026913;28;20499;-82
2023/10/05 01:45:23;;;;;;;0.50;0.47;;;13.10;99.90;;;;;;5017987;28;20452;-81
2023/10/05 01:47:50;;;;;;;0.50;0.40;;;13.10;99.90;;;;;;5030414;28;20439;-81
2023/10/05 01:50:19;;;;;;;0.50;0.40;;;13.10;99.90;;;;;;5022602;28;20918;-81
2023/10/05 01:52:51;;;;;;;0.50;0.40;;;13.00;99.90;;;;;;5017986;28;20463;-80
2023/10/05 01:55:18;;;;;;;0.50;0.40;;;13.00;99.90;;;;;;5017888;28;20935;-81
2023/10/05 01:57:45;;;;;;;0.50;0.40;;;13.00;99.90;;;;;;5025801;28;20444;-80
2023/10/05 02:00:23;;;;;;;0.50;0.40;;;13.00;99.90;;;;;;5018341;28;20537;-81
2023/10/05 02:02:52;;;;;;;1.10;0.50;;;13.00;99.90;;;;;;5017938;28;20866;-81
2023/10/05 02:05:20;;;;;;;0.50;0.40;;;13.00;99.90;;;;;;5017767;28;20513;-81
2023/10/05 02:07:49;;;;;;;0.50;0.40;;;12.90;99.90;;;;;;5018093;28;21140;-79
2023/10/05 02:10:19;;;;;;;0.50;0.40;;;13.00;99.90;;;;;;5019255;28;20497;-81
2023/10/05 02:12:53;;;;;;;0.50;0.40;;;12.90;99.90;;;;;;5020075;28;20541;-81
2023/10/05 02:15:28;;;;;;;1.23;1.23;;;12.90;99.90;;;;;;5019738;28;20443;-81
2023/10/05 02:17:56;;;;;;;0.50;0.40;;;12.90;99.90;;;;;;5019259;28;20546;-80
2023/10/05 02:26:10;;;;;;;0.50;0.40;;;12.90;99.90;;;;;;5132216;27;20513;-80
2023/10/05 02:28:39;;;;;;;0.50;0.50;;;12.90;99.90;;;;;;5131633;28;20449;-82
2023/10/05 02:31:10;;;;;;;1.07;0.50;;;12.90;99.90;;;;;;5132951;27;20497;-81
2023/10/05 02:33:38;;;;;;;0.50;0.50;;;12.90;99.90;;;;;;5111767;28;20441;-81
2023/10/05 02:36:11;;;;;;;0.50;0.40;;;12.90;99.90;;;;;;5111338;28;20468;-82
2023/10/05 02:38:38;;;;;;;0.50;0.40;;;12.90;99.90;;;;;;5111635;28;20564;-81
2023/10/05 02:41:08;;;;;;;0.80;0.80;;;12.90;99.90;;;;;;5111507;28;20441;-81
2023/10/05 02:43:39;;;;;;;0.50;0.40;;;12.90;99.90;;;;;;5112067;28;20507;-81
2023/10/05 02:46:11;;;;;;;0.50;0.40;;;12.90;99.90;;;;;;5111765;28;20443;-80
2023/10/05 02:48:39;;;;;;;0.50;0.40;;;12.90;99.90;;;;;;5111819;28;20490;-81
2023/10/05 02:51:08;;;;;;;0.80;0.80;;;12.80;99.90;;;;;;5111918;28;21076;-83
2023/10/05 02:53:41;;;;;;;0.50;0.40;;;12.80;99.90;;;;;;5110711;28;20465;-80
2023/10/05 02:56:22;;;;;;;0.50;0.40;;;12.90;99.90;;;;;;5111672;28;20452;-80
2023/10/05 02:58:54;;;;;;;0.50;0.40;;;12.90;99.90;;;;;;5111062;28;20449;-81
2023/10/05 03:01:22;;;;;;;0.50;0.50;;;12.90;99.90;;;;;;5112037;28;20448;-81
2023/10/05 03:03:50;;;;;;;0.50;0.40;;;12.80;99.90;;;;;;5114622;28;20473;-81
2023/10/05 03:06:17;;;;;;;1.33;1.33;;;12.80;99.90;;;;;;5111533;28;20453;-81
2023/10/05 03:08:48;;;;;;;0.50;0.40;;;12.80;99.90;;;;;;5111099;28;20536;-81
2023/10/05 03:11:18;;;;;;;0.50;0.40;;;12.80;99.90;;;;;;5111710;28;20475;-81
2023/10/05 03:13:47;;;;;;;1.43;1.13;;;12.80;99.90;;;;;;5112048;28;20886;-82
2023/10/05 03:16:16;;;;;;;0.50;0.40;;;12.80;99.90;;;;;;5111769;28;20435;-82
2023/10/05 03:18:44;;;;;;;1.30;1.23;;;12.80;99.90;;;;;;5110895;28;20440;-82
2023/10/05 03:21:13;;;;;;;0.67;0.57;;;12.80;99.90;;;;;;5111274;28;20960;-82
2023/10/05 03:23:41;;;;;;;0.50;0.40;;;12.70;99.90;;;;;;5111211;28;20464;-81
2023/10/05 03:26:10;;;;;;;0.60;0.60;;;12.70;99.90;;;;;;5111408;28;20509;-82
2023/10/05 03:28:37;;;;;;;1.80;1.70;;;12.70;99.90;;;;;;5111234;28;20829;-82
2023/10/05 03:31:14;;;;;;;0.50;0.40;;;12.70;99.90;;;;;;5111493;28;20495;-82
2023/10/05 03:33:42;;;;;;;0.50;0.40;;;12.70;99.90;;;;;;5111044;28;20501;-82
2023/10/05 03:36:14;;;;;;;0.50;0.40;;;12.70;99.90;;;;;;5104925;28;20441;-82
2023/10/05 03:38:41;;;;;;;0.50;0.40;;;12.70;99.90;;;;;;5097936;28;20474;-81
2023/10/05 03:41:15;;;;;;;0.50;0.40;;;12.70;99.90;;;;;;5098428;28;20438;-83
2023/10/05 03:43:43;;;;;;;0.50;0.40;;;12.60;99.90;;;;;;5096996;28;20449;-83
2023/10/05 03:46:11;;;;;;;0.50;0.40;;;12.60;99.90;;;;;;5097175;28;20475;-82
2023/10/05 03:48:39;;;;;;;0.50;0.40;;;12.60;99.90;;;;;;5096436;28;20438;-83
2023/10/05 03:51:15;;;;;;;0.50;0.40;;;12.60;99.90;;;;;;5097450;28;20913;-83
2023/10/05 03:53:46;;;;;;;0.50;0.40;;;12.50;99.90;;;;;;5096400;28;20438;-82
2023/10/05 03:56:13;;;;;;;0.50;0.40;;;12.50;99.90;;;;;;5095592;28;20437;-83
2023/10/05 03:58:40;;;;;;;0.50;0.40;;;12.40;99.90;;;;;;5094878;28;20438;-82
2023/10/05 04:01:10;;;;;;;0.50;0.40;;;12.40;99.90;;;;;;5095838;28;20434;-81
2023/10/05 04:03:39;;;;;;;0.60;0.50;;;12.40;99.90;;;;;;5094471;28;20449;-82
2023/10/05 04:06:16;;;;;;;0.50;0.40;;;12.40;99.90;;;;;;5095815;28;20216;-83
2023/10/05 04:08:45;;;;;;;0.50;0.40;;;12.40;99.90;;;;;;5094976;28;20433;-82
2023/10/05 04:11:12;;;;;;;0.50;0.40;;;12.30;99.90;;;;;;5097009;28;20502;-82
2023/10/05 04:13:39;;;;;;;0.50;0.40;;;12.30;99.90;;;;;;5095778;28;20451;-82
2023/10/05 04:16:09;;;;;;;0.50;0.40;;;12.30;99.90;;;;;;5095328;28;20988;-81
2023/10/05 04:18:37;;;;;;;0.60;0.40;;;12.30;99.90;;;;;;5095604;28;20449;-82
2023/10/05 04:21:06;;;;;;;1.40;1.27;;;12.30;99.90;;;;;;5096182;28;20442;-82
2023/10/05 04:23:33;;;;;;;4.63;1.40;;;12.30;99.90;;;;;;5095332;28;20215;-82
2023/10/05 04:26:01;;;;;;;0.50;0.40;;;12.30;99.90;;;;;;5094792;28;20469;-82
2023/10/05 04:28:32;;;;;;;0.50;0.40;;;12.30;99.90;;;;;;5095189;28;20278;-82
2023/10/05 04:30:59;;;;;;;0.50;0.40;;;12.30;99.90;;;;;;5095409;28;20438;-83
2023/10/05 04:33:28;;;;;;;0.50;0.40;;;12.40;99.90;;;;;;5095230;28;20841;-83
2023/10/05 04:35:55;;;;;;;0.70;0.70;;;12.30;99.90;;;;;;5094670;28;20953;-83
2023/10/05 04:38:25;;;;;;;0.50;0.40;;;12.30;99.90;;;;;;5095469;28;20937;-82
2023/10/05 04:40:52;;;;;;;0.50;0.43;;;12.40;99.90;;;;;;5095294;28;20457;-83
2023/10/05 04:43:20;;;;;;;0.50;0.40;;;12.40;99.90;;;;;;5095067;28;20465;-82
2023/10/05 04:45:47;;;;;;;0.50;0.40;;;12.40;99.90;;;;;;5094670;28;20242;-82
2023/10/05 04:48:14;;;;;;;1.53;0.90;;;12.40;99.90;;;;;;5094367;28;20463;-83
2023/10/05 04:50:41;;;;;;;0.50;0.40;;;12.40;99.90;;;;;;5095596;28;20476;-82
2023/10/05 04:53:09;;;;;;;0.50;0.40;;;12.40;99.90;;;;;;5095241;28;20461;-81
2023/10/05 04:55:42;;;;;;;0.87;0.87;;;12.40;99.90;;;;;;5095094;28;20449;-82
2023/10/05 04:58:21;;;;;;;0.50;0.50;;;12.40;99.90;;;;;;5087860;28;20437;-82
2023/10/05 05:01:04;;;;;;;1.17;1.17;;;12.40;99.90;;;;;;5095660;28;20521;-81
2023/10/05 05:03:48;;;;;;;0.50;0.40;;;12.40;99.90;;;;;;5094261;28;20464;-81
2023/10/05 05:06:14;;;;;;;0.50;0.40;;;12.40;99.90;;;;;;5087445;28;20480;-81
2023/10/05 05:08:41;;;;;;;0.50;0.40;;;12.40;99.90;;;;;;5095447;28;20507;-81
2023/10/05 05:11:18;;;;;;;0.60;0.60;;;12.40;99.90;;;;;;5094233;28;20432;-82
2023/10/05 05:13:46;;;;;;;0.50;0.40;;;12.40;99.90;;;;;;5094361;28;20662;-81
2023/10/05 05:16:14;;;;;;;0.50;0.50;;;12.40;99.90;;;;;;5094295;28;20445;-82
2023/10/05 05:18:42;;;;;;;1.07;1.07;;;12.40;99.90;;;;;;5094142;28;20445;-81
2023/10/05 05:21:11;;;;;;;0.50;0.40;;;12.30;99.90;;;;;;5094248;28;20454;-82
2023/10/05 05:23:39;;;;;;;0.50;0.40;;;12.30;99.90;;;;;;5094326;28;20458;-82
2023/10/05 05:26:09;;;;;;;0.50;0.40;;;12.30;99.90;;;;;;5094011;28;20474;-82
2023/10/05 05:28:38;;;;;;;0.50;0.40;;;12.30;99.90;;;;;;5093979;28;20863;-81
2023/10/05 05:31:14;;;;;;;0.80;0.80;;;12.30;99.90;;;;;;5094268;28;20951;-82
2023/10/05 05:33:42;;;;;;;0.50;0.50;;;12.30;99.90;;;;;;5095915;28;20464;-82
2023/10/05 05:36:11;;;;;;;0.50;0.40;;;12.30;99.90;;;;;;5086976;28;20528;-81
2023/10/05 05:38:39;;;;;;;1.90;1.50;;;12.40;99.90;;;;;;5095348;28;20453;-81
2023/10/05 05:41:12;;;;;;;0.50;0.40;;;12.40;99.90;;;;;;5093922;28;20445;-80
2023/10/05 05:43:40;;;;;;;0.50;0.40;;;12.40;99.90;;;;;;5094794;28;20449;-81
2023/10/05 05:46:12;;;;;;;0.50;0.40;;;12.40;99.90;;;;;;5094480;28;20535;-81
2023/10/05 05:48:39;;;;;;;0.50;0.40;;;12.40;99.90;;;;;;5094608;28;20443;-82
2023/10/05 05:51:10;;;;;;;0.77;0.77;;;12.40;99.90;;;;;;5095370;28;20440;-81
2023/10/05 05:53:37;;;;;;;0.50;0.40;;;12.40;99.90;;;;;;5046604;22;20490;-80
2023/10/05 05:56:04;;;;;;;0.50;0.40;;;12.40;99.90;;;;;;5017809;28;20955;-80
2023/10/05 05:58:31;;;;;;;0.50;0.40;;;12.40;99.90;;;;;;5019154;28;20513;-80
2023/10/05 06:00:59;;;;;;;0.50;0.40;;;12.40;99.90;;;;;;5018897;28;20449;-80
2023/10/05 06:03:27;;;;;;;0.50;0.40;;;12.40;99.90;;;;;;5018802;28;20464;-81
2023/10/05 06:05:54;;;;;;;0.50;0.40;;;12.40;99.90;;;;;;5019054;28;20472;-81
2023/10/05 06:08:22;;;;;;;0.50;0.40;;;12.40;99.90;;;;;;5018803;28;20535;-81
2023/10/05 06:10:51;;;;;;;0.50;0.40;;;12.40;99.90;;;;;;5019069;28;20447;-81
2023/10/05 06:13:19;;;;;;;0.50;0.40;;;12.40;99.90;;;;;;5019134;28;20472;-81
2023/10/05 06:15:46;;;;;;;0.50;0.40;;;12.40;99.90;;;;;;5018920;28;20446;-80
2023/10/05 06:18:14;;;;;;;0.50;0.40;;;12.50;99.90;;;;;;5018490;28;20453;-81
2023/10/05 06:20:41;;;;;;;0.50;0.40;;;12.50;99.90;;;;;;5027579;28;20449;-81
2023/10/05 06:23:08;;;;;;;0.50;0.40;;;12.50;99.90;;;;;;5018922;28;20229;-81
2023/10/05 06:25:35;;;;;;;0.50;0.40;;;12.50;99.90;;;;;;5024750;28;20476;-78
2023/10/05 06:28:01;;;;;;;0.50;0.40;;;12.60;99.90;;;;;;5023398;28;20455;-81
2023/10/05 06:30:28;;;;;;;0.50;0.40;;;12.70;99.90;;;;;;5028197;28;20465;-80
2023/10/05 06:32:56;;;;;;;0.50;0.40;;;12.70;99.90;;;;;;5019419;28;20898;-80
2023/10/05 06:35:24;;;;;;;0.50;0.40;;;12.80;99.90;;;;;;5019719;28;20460;-81
2023/10/05 06:37:52;;;;;;;0.50;0.40;;;12.80;99.90;;;;;;5019610;28;20452;-81
2023/10/05 06:40:22;;;;;;;0.50;0.40;;;12.80;99.90;;;;;;5026759;28;20470;-80
2023/10/05 06:42:49;;;;;;;0.50;0.40;;;12.80;99.90;;;;;;5018985;28;20464;-80
2023/10/05 06:45:17;;;;;;;0.50;0.40;;;12.90;99.90;;;;;;5018760;28;20476;-81
2023/10/05 06:47:44;;;;;;;1.30;1.20;;;12.90;99.90;;;;;;5027216;28;20521;-81
2023/10/05 06:50:11;;;;;;;0.53;0.50;;;13.00;99.90;;;;;;5019107;28;20440;-81
2023/10/05 06:52:42;;;;;;;0.50;0.40;;;13.00;99.90;;;;;;5019059;28;20461;-81
2023/10/05 06:55:11;;;;;;;0.50;0.40;;;13.10;99.90;;;;;;5018814;28;21713;-82
2023/10/05 06:57:39;;;;;;;0.90;0.90;;;13.10;99.90;;;;;;5018482;28;20480;-77
2023/10/05 07:00:11;;;;;;;1.87;1.77;;;13.10;99.90;;;;;;5017757;28;20529;-81
2023/10/05 07:02:40;;;;;;;2.20;2.00;;;13.20;99.90;;;;;;5018723;28;20456;-81
2023/10/05 07:05:07;;;;;;;0.50;0.40;;;13.20;99.90;;;;;;5018633;28;20450;-81
2023/10/05 07:07:34;;;;;;;0.50;0.40;;;13.30;99.90;;;;;;5018566;28;20454;-80
2023/10/05 07:10:03;;;;;;;0.50;0.40;;;13.40;99.90;;;;;;5018519;28;20442;-81
2023/10/05 07:12:31;;;;;;;0.50;0.40;;;13.50;99.90;;;;;;5021450;28;20462;-80
2023/10/05 07:14:58;;;;;;;0.50;0.40;;;13.60;99.90;;;;;;5021630;28;20452;-80
2023/10/05 07:17:26;;;;;;;0.50;0.50;;;13.70;99.90;;;;;;5022345;28;20471;-79
2023/10/05 07:19:53;;;;;;;0.80;0.80;;;13.70;99.90;;;;;;5023066;28;20452;-81
2023/10/05 07:22:21;;;;;;;0.50;0.40;;;13.70;99.90;;;;;;5022933;28;20491;-81
2023/10/05 07:24:47;;;;;;;0.50;0.40;;;13.80;99.90;;;;;;5023026;28;20505;-79
2023/10/05 07:27:16;;;;;;;0.80;0.80;;;13.80;99.90;;;;;;5021211;28;20560;-81
2023/10/05 07:29:45;;;;;;;0.50;0.43;;;13.90;99.90;;;;;;5022268;28;20497;-77
2023/10/05 07:32:12;;;;;;;2.40;2.00;;;14.00;99.90;;;;;;5022493;28;20461;-81
2023/10/05 07:34:40;;;;;;;0.50;0.40;;;14.00;99.90;;;;;;5021348;28;20530;-81
2023/10/05 07:37:10;;;;;;;0.50;0.40;;;14.00;99.90;;;;;;5020954;28;21173;-81
2023/10/05 07:39:37;;;;;;;1.00;1.00;;;14.10;99.90;;;;;;5021854;28;20482;-81
2023/10/05 07:42:04;;;;;;;0.90;0.90;;;14.10;99.90;;;;;;5021158;28;20465;-81
2023/10/05 07:44:32;;;;;;;0.50;0.40;;;14.20;99.90;;;;;;5021284;28;20450;-80
2023/10/05 07:46:59;;;;;;;0.50;0.40;;;14.20;99.90;;;;;;5020618;28;21076;-80
2023/10/05 07:49:26;;;;;;;0.50;0.47;;;14.30;99.90;;;;;;5021531;28;20940;-80
2023/10/05 07:51:53;;;;;;;0.50;0.40;;;14.30;99.90;;;;;;5021026;28;20458;-80
2023/10/05 07:54:20;;;;;;;0.50;0.40;;;14.40;99.90;;;;;;5012927;28;20448;-81
2023/10/05 07:56:47;;;;;;;0.50;0.40;;;14.50;99.90;;;;;;5021499;28;20433;-81
2023/10/05 07:59:14;;;;;;;0.90;0.70;;;14.50;99.90;;;;;;5021882;28;20446;-80
2023/10/05 08:01:43;;;;;;;0.50;0.40;;;14.60;99.90;;;;;;5021552;28;20449;-80
2023/10/05 08:04:11;;;;;;;0.50;0.40;;;14.70;99.90;;;;;;5028558;28;20472;-82
2023/10/05 08:06:39;;;;;;;0.50;0.40;;;14.70;99.90;;;;;;5020595;28;20469;-77
2023/10/05 08:09:07;;;;;;;0.50;0.40;;;14.80;99.90;;;;;;5019981;28;20481;-80
2023/10/05 08:11:34;;;;;;;0.50;0.40;;;14.80;99.90;;;;;;5021248;28;20438;-80
2023/10/05 08:14:01;;;;;;;0.50;0.50;;;14.80;99.90;;;;;;5020671;28;20449;-81
2023/10/05 08:16:28;;;;;;;0.50;0.40;;;14.80;99.90;;;;;;5029077;28;20438;-80
2023/10/05 08:18:56;;;;;;;0.50;0.40;;;15.00;99.90;;;;;;5021434;28;20454;-81
2023/10/05 08:21:23;;;;;;;1.47;1.47;;;15.00;99.90;;;;;;5013117;28;20492;-81
2023/10/05 08:23:51;;;;;;;0.50;0.40;;;15.10;99.90;;;;;;5028553;28;20461;-80
2023/10/05 08:26:18;;;;;;;0.50;0.40;;;15.20;99.90;;;;;;5020415;28;20485;-80
2023/10/05 08:28:49;;;;;;;0.50;0.40;;;15.30;99.90;;;;;;5031845;28;20449;-79
2023/10/05 08:31:22;;;;;;;2.70;2.10;;;15.30;99.90;;;;;;5027466;28;20946;-81
2023/10/05 08:33:50;;;;;;;0.50;0.40;;;15.30;99.90;;;;;;5020944;28;20537;-81
2023/10/05 08:36:18;;;;;;;1.80;1.37;;;15.30;99.90;;;;;;5019574;28;20434;-81
2023/10/05 08:38:47;;;;;;;0.50;0.40;;;15.20;99.90;;;;;;5019961;28;20438;-80
2023/10/05 08:41:24;;;;;;;0.50;0.40;;;15.10;99.90;;;;;;5019900;28;20446;-81
2023/10/05 08:43:53;;;;;;;1.10;0.93;;;15.10;99.90;;;;;;5019761;28;20540;-81
2023/10/05 08:46:22;;;;;;;1.00;0.93;;;15.10;99.90;;;;;;5019801;28;20528;-80
2023/10/05 08:48:49;;;;;;;0.97;0.97;;;15.00;99.90;;;;;;5019529;28;20971;-82
2023/10/05 08:51:17;;;;;;;15.23;1.90;;;15.10;99.90;;;;;;5019520;28;20514;-81
2023/10/05 08:53:48;;;;;;;0.60;0.60;;;15.20;99.90;;;;;;5024694;28;20476;-80
2023/10/05 08:56:16;;;;;;;0.50;0.40;;;15.30;99.90;;;;;;5020845;28;20437;-81
2023/10/05 08:58:45;;;;;;;0.50;0.40;;;15.40;99.90;;;;;;5019585;28;20453;-81
2023/10/05 09:01:27;;;;;;;0.57;0.50;;;15.50;99.90;;;;;;5018547;28;20539;-80
2023/10/05 09:04:01;;;;;;;0.50;0.40;;;15.40;99.90;;;;;;5019579;28;20465;-81
2023/10/05 09:06:30;;;;;;;1.37;0.83;;;15.40;99.90;;;;;;5020289;28;20477;-80
2023/10/05 09:09:07;;;;;;;0.50;0.40;;;15.50;99.90;;;;;;5019488;28;20455;-80
2023/10/05 09:11:35;;;;;;;0.60;0.50;;;15.70;99.90;;;;;;5012593;28;20514;-80
2023/10/05 09:14:20;;;;;;;0.50;0.40;;;15.90;99.90;;;;;;5020524;28;20551;-82
2023/10/05 09:16:50;;;;;;;0.50;0.40;;;16.00;99.90;;;;;;5013918;28;20446;-81
2023/10/05 09:19:26;;;;;;;0.50;0.40;;;16.20;99.90;;;;;;5026938;28;20441;-80
2023/10/05 09:22:10;;;;;;;0.50;0.50;;;16.30;99.90;;;;;;5019672;28;20484;-81
2023/10/05 09:24:40;;;;;;;0.50;0.40;;;16.50;99.90;;;;;;5019849;28;20439;-79
2023/10/05 09:27:12;;;;;;;0.50;0.40;;;16.70;99.90;;;;;;5019466;28;20471;-81
2023/10/05 09:29:40;;;;;;;0.50;0.40;;;17.00;99.90;;;;;;5019694;28;20498;-81
2023/10/05 09:32:11;;;;;;;0.50;0.40;;;17.10;99.90;;;;;;5019010;28;20455;-81
2023/10/05 09:34:43;;;;;;;0.50;0.50;;;17.00;99.90;;;;;;5018627;28;20431;-80
2023/10/05 09:37:13;;;;;;;0.80;0.50;;;17.10;99.90;;;;;;5018095;28;20491;-81
2023/10/05 09:39:44;;;;;;;1.17;1.07;;;17.10;99.90;;;;;;5018451;28;20849;-81
2023/10/05 09:42:16;;;;;;;0.50;0.40;;;17.00;99.90;;;;;;5018464;28;20465;-81
2023/10/05 09:44:51;;;;;;;0.50;0.40;;;17.10;99.90;;;;;;5018423;28;20442;-80
2023/10/05 09:47:25;;;;;;;0.50;0.40;;;17.20;99.90;;;;;;5018420;28;20995;-81
2023/10/05 09:49:53;;;;;;;0.50;0.40;;;17.20;99.90;;;;;;5018441;28;20447;-82
2023/10/05 09:52:24;;;;;;;0.50;0.40;;;17.20;99.90;;;;;;5018237;28;20471;-81
2023/10/05 09:54:51;;;;;;;0.50;0.40;;;17.20;99.90;;;;;;5018451;28;20938;-81
2023/10/05 09:57:20;;;;;;;0.50;0.40;;;17.40;99.90;;;;;;5018649;28;20834;-82
2023/10/05 09:59:57;;;;;;;0.60;0.40;;;17.50;99.90;;;;;;5017652;28;20447;-81
2023/10/05 10:02:33;;;;;;;5.50;5.30;;;17.60;99.90;;;;;;5026355;28;20458;-80
2023/10/05 10:05:04;;;;;;;1.23;0.70;;;17.60;99.90;;;;;;5018179;28;20485;-79
2023/10/05 10:07:34;;;;;;;0.50;0.40;;;17.70;99.90;;;;;;5017303;28;20471;-81
2023/10/05 10:10:04;;;;;;;0.50;0.30;;;17.90;99.90;;;;;;5026772;28;20437;-79
2023/10/05 10:12:38;;;;;;;0.50;0.40;;;17.70;99.90;;;;;;5018345;28;20462;-81
2023/10/05 10:15:12;;;;;;;0.50;0.40;;;17.40;99.90;;;;;;5017890;28;20439;-81
2023/10/05 10:17:42;;;;;;;0.50;0.30;;;17.40;99.90;;;;;;5017842;28;20430;-80
2023/10/05 10:20:34;;;;;;;0.70;0.50;;;17.40;99.90;;;;;;5017571;28;20439;-81
2023/10/05 10:23:13;;;;;;;0.60;0.50;;;17.40;99.90;;;;;;5017380;28;20463;-82
2023/10/05 10:25:39;;;;;;;0.50;0.40;;;17.40;99.90;;;;;;5017779;28;20506;-80
2023/10/05 10:28:18;;;;;;;0.50;0.40;;;17.40;99.90;;;;;;5018941;28;20479;-82
2023/10/05 10:30:50;;;;;;;0.50;0.30;;;17.50;99.90;;;;;;5011614;28;20427;-79
2023/10/05 10:33:32;;;;;;;0.50;0.30;;;17.50;99.90;;;;;;5017895;28;20815;-79
2023/10/05 10:35:59;;;;;;;0.50;0.30;;;17.30;99.90;;;;;;5021971;28;20470;-80
2023/10/05 10:38:27;;;;;;;0.50;0.40;;;17.30;99.90;;;;;;5021996;28;20431;-81
2023/10/05 10:41:10;;;;;;;0.50;0.40;;;17.40;99.90;;;;;;5017510;28;20888;-78
2023/10/05 10:43:37;;;;;;;0.50;0.50;;;17.40;99.90;;;;;;5010272;28;20462;-80
2023/10/05 10:46:13;;;;;;;0.50;0.30;;;17.20;99.90;;;;;;5018536;28;20861;-81
2023/10/05 10:48:57;;;;;;;0.50;0.40;;;17.20;99.90;;;;;;5013582;28;20545;-81
2023/10/05 10:51:27;;;;;;;0.50;0.30;;;17.50;99.90;;;;;;5028739;28;20449;-79
2023/10/05 10:53:56;;;;;;;0.50;0.40;;;17.30;99.90;;;;;;5021982;28;20470;-81
2023/10/05 10:56:29;;;;;;;0.50;0.40;;;17.40;99.90;;;;;;5021861;28;20788;-80
2023/10/05 10:59:09;;;;;;;1.83;0.80;;;17.50;99.90;;;;;;5023185;28;20439;-80
2023/10/05 11:01:43;;;;;;;0.50;0.30;;;17.50;99.90;;;;;;5022600;28;20423;-79
2023/10/05 11:04:26;;;;;;;0.50;0.40;;;17.60;99.90;;;;;;5021475;28;21030;-81
2023/10/05 11:06:56;;;;;;;0.50;0.40;;;17.80;99.90;;;;;;5016283;28;20473;-81
2023/10/05 11:09:31;;;;;;;0.50;0.40;;;18.10;99.90;;;;;;5023836;28;20453;-80
2023/10/05 11:12:10;;;;;;;0.50;0.40;;;18.10;99.90;;;;;;5023718;28;20804;-80
2023/10/05 11:14:43;;;;;;;1.47;0.97;;;18.30;99.90;;;;;;5023519;28;20669;-77
2023/10/05 11:17:31;;;;;;;0.80;0.60;;;18.20;99.90;;;;;;5022827;28;20439;-80
2023/10/05 11:20:11;;;;;;;0.50;0.40;;;18.20;99.90;;;;;;5016402;28;20886;-81
2023/10/05 11:22:42;;;;;;;0.50;0.40;;;18.30;99.90;;;;;;5020802;28;20542;-81
2023/10/05 11:25:23;;;;;;;0.50;0.30;;;18.30;99.90;;;;;;5020080;28;20958;-81
2023/10/05 11:27:56;;;;;;;0.50;0.40;;;18.40;99.90;;;;;;5014034;28;20902;-80
2023/10/05 11:30:26;;;;;;;0.50;0.40;;;18.30;99.90;;;;;;5021272;28;20958;-81
2023/10/05 11:32:56;;;;;;;0.50;0.40;;;18.40;99.90;;;;;;5020702;28;20458;-81
2023/10/05 11:35:29;;;;;;;0.50;0.50;;;18.50;99.90;;;;;;5021237;28;20471;-82
2023/10/05 11:38:03;;;;;;;2.30;0.97;;;18.70;99.90;;;;;;5020878;28;20430;-81
2023/10/05 11:40:34;;;;;;;0.50;0.30;;;18.70;99.90;;;;;;5020602;28;20531;-82
2023/10/05 11:43:06;;;;;;;0.50;0.33;;;18.70;99.90;;;;;;5020756;28;20483;-80
2023/10/05 11:45:34;;;;;;;0.50;0.30;;;18.80;99.90;;;;;;5022312;28;20443;-80
2023/10/05 11:48:11;;;;;;;2.10;1.90;;;19.20;99.90;;;;;;5025941;28;20517;-81
2023/10/05 11:50:38;;;;;;;0.50;0.40;;;19.10;99.90;;;;;;5020501;28;20594;-81
2023/10/05 11:53:11;;;;;;;0.70;0.50;;;19.10;99.90;;;;;;5020267;28;20883;-81
2023/10/05 11:55:39;;;;;;;0.50;0.30;;;19.00;99.90;;;;;;5021376;28;20436;-78
2023/10/05 11:58:08;;;;;;;0.50;0.40;;;18.90;99.90;;;;;;5028287;28;20440;-80
2023/10/05 12:00:35;;;;;;;0.50;0.30;;;19.30;99.90;;;;;;5020099;28;20463;-81
2023/10/05 12:03:02;;;;;;;0.50;0.33;;;19.70;99.90;;;;;;5020340;28;20463;-81
2023/10/05 12:05:30;;;;;;;0.60;0.50;;;20.00;99.90;;;;;;5020797;28;20440;-80
2023/10/05 12:07:59;;;;;;;0.50;0.30;;;20.20;99.90;;;;;;5025795;28;20475;-80
2023/10/05 12:10:26;;;;;;;0.63;0.40;;;20.10;99.90;;;;;;5027501;28;20444;-80
2023/10/05 12:12:54;;;;;;;0.50;0.30;;;20.10;99.90;;;;;;5026991;28;20458;-81
2023/10/05 12:15:22;;;;;;;0.50;0.30;;;20.00;99.90;;;;;;5026915;28;20502;-79
2023/10/05 12:17:50;;;;;;;0.50;0.37;;;19.80;99.90;;;;;;5031646;28;20447;-80
2023/10/05 12:20:18;;;;;;;0.50;0.30;;;19.60;99.90;;;;;;5038724;28;20438;-80
2023/10/05 12:22:45;;;;;;;0.50;0.30;;;19.30;99.90;;;;;;5018753;28;20591;-80
2023/10/05 12:25:14;;;;;;;0.50;0.30;;;19.00;99.90;;;;;;5027568;28;20934;-80
2023/10/05 12:27:41;;;;;;;0.50;0.30;;;19.10;99.90;;;;;;5023750;28;20472;-77
2023/10/05 12:30:11;;;;;;;0.50;0.30;;;19.30;99.90;;;;;;5020072;28;20454;-81
2023/10/05 12:32:39;;;;;;;0.50;0.40;;;19.40;99.90;;;;;;5031829;28;20451;-80
2023/10/05 12:35:13;;;;;;;0.50;0.33;;;19.40;99.90;;;;;;5026078;28;20794;-80
2023/10/05 12:37:40;;;;;;;0.50;0.30;;;19.50;99.90;;;;;;5021040;28;20447;-81
2023/10/05 12:40:17;;;;;;;1.03;1.03;;;19.60;99.90;;;;;;5020955;28;20518;-81
2023/10/05 12:42:51;;;;;;;0.50;0.40;;;19.80;99.90;;;;;;5031621;28;20509;-80
2023/10/05 12:45:23;;;;;;;0.73;0.73;;;20.00;99.90;;;;;;5035034;28;20431;-80
2023/10/05 12:47:52;;;;;;;0.50;0.30;;;19.90;99.90;;;;;;5026527;28;20490;-79
2023/10/05 12:50:20;;;;;;;0.60;0.50;;;19.90;99.90;;;;;;5027164;28;20542;-79
2023/10/05 12:52:50;;;;;;;0.70;0.50;;;20.10;99.90;;;;;;5029890;28;20466;-79
2023/10/05 12:55:18;;;;;;;0.50;0.40;;;20.20;99.90;;;;;;5031495;28;20468;-80
2023/10/05 12:57:46;;;;;;;0.50;0.40;;;20.60;99.90;;;;;;5034991;28;20439;-80
2023/10/05 13:00:21;;;;;;;1.53;1.23;;;20.70;99.90;;;;;;5034807;28;20444;-79
2023/10/05 13:02:51;;;;;;;0.50;0.40;;;20.40;99.90;;;;;;5030678;28;20454;-79
2023/10/05 13:05:28;;;;;;;0.50;0.30;;;20.10;99.90;;;;;;5030833;28;20450;-80
2023/10/05 13:07:55;;;;;;;0.50;0.40;;;19.60;99.90;;;;;;5031958;28;20463;-80
2023/10/05 13:10:26;;;;;;;0.60;0.50;;;19.20;99.90;;;;;;5027961;28;20494;-81